sensor_id;sensor_type;location;lat;lon;timestamp;temperature;humidity
46706;DHT22;33519;50.712;7.124;2022-12-17T00:02:40;-1.40;99.90
46706;DHT22;33519;50.712;7.124;2022-12-17T00:05:25;-1.30;99.90
46706;DHT22;33519;50.712;7.124;2022-12-17T00:08:12;-1.30;99.90
46706;DHT22;33519;50.712;7.124;2022-12-17T00:10:58;-1.40;99.90
46706;DHT22;33519;50.712;7.124;2022-12-17T00:13:43;-1.40;99.90
46706;DHT22;33519;50.712;7.124;2022-12-17T00:16:28;-1.40;99.90
46706;DHT22;33519;50.712;7.124;2022-12-17T00:19:17;-1.40;99.90
46706;DHT22;33519;50.712;7.124;2022-12-17T00:22:02;-1.40;99.90
46706;DHT22;33519;50.712;7.124;2022-12-17T00:24:48;-1.40;99.90
46706;DHT22;33519;50.712;7.124;2022-12-17T00:27:33;-1.50;99.90
46706;DHT22;33519;50.712;7.124;2022-12-17T00:30:19;-1.40;99.90
46706;DHT22;33519;50.712;7.124;2022-12-17T00:33:04;-1.40;99.90
46706;DHT22;33519;50.712;7.124;2022-12-17T00:35:51;-1.40;99.90
46706;DHT22;33519;50.712;7.124;2022-12-17T00:38:36;-1.40;99.90
46706;DHT22;33519;50.712;7.124;2022-12-17T00:41:22;-1.40;99.90
46706;DHT22;33519;50.712;7.124;2022-12-17T00:44:07;-1.40;99.90
46706;DHT22;33519;50.712;7.124;2022-12-17T00:46:52;-1.50;99.90
46706;DHT22;33519;50.712;7.124;2022-12-17T00:49:38;-1.50;99.90
46706;DHT22;33519;50.712;7.124;2022-12-17T00:52:23;-1.60;99.90
46706;DHT22;33519;50.712;7.124;2022-12-17T00:55:08;-1.60;99.90
46706;DHT22;33519;50.712;7.124;2022-12-17T00:57:58;-1.50;99.90
46706;DHT22;33519;50.712;7.124;2022-12-17T01:00:44;-1.60;99.90
46706;DHT22;33519;50.712;7.124;2022-12-17T01:03:29;-1.50;99.90
46706;DHT22;33519;50.712;7.124;2022-12-17T01:06:14;-1.50;99.90
46706;DHT22;33519;50.712;7.124;2022-12-17T01:09:00;-1.50;99.90
46706;DHT22;33519;50.712;7.124;2022-12-17T01:11:45;-1.50;99.90
46706;DHT22;33519;50.712;7.124;2022-12-17T01:14:30;-1.50;99.90
46706;DHT22;33519;50.712;7.124;2022-12-17T01:17:16;-1.50;99.90
46706;DHT22;33519;50.712;7.124;2022-12-17T01:20:01;-1.50;99.90
46706;DHT22;33519;50.712;7.124;2022-12-17T01:22:46;-1.50;99.90
46706;DHT22;33519;50.712;7.124;2022-12-17T01:25:32;-1.50;99.90
46706;DHT22;33519;50.712;7.124;2022-12-17T01:28:22;-1.50;99.90
46706;DHT22;33519;50.712;7.124;2022-12-17T01:31:08;-1.50;99.90
46706;DHT22;33519;50.712;7.124;2022-12-17T01:34:00;-1.50;99.90
46706;DHT22;33519;50.712;7.124;2022-12-17T01:36:45;-1.50;99.90
46706;DHT22;33519;50.712;7.124;2022-12-17T01:39:30;-1.40;99.90
46706;DHT22;33519;50.712;7.124;2022-12-17T01:42:16;-1.40;99.90
46706;DHT22;33519;50.712;7.124;2022-12-17T01:45:02;-1.40;99.90
46706;DHT22;33519;50.712;7.124;2022-12-17T01:47:54;-1.50;99.90
46706;DHT22;33519;50.712;7.124;2022-12-17T01:50:45;-1.50;99.90
46706;DHT22;33519;50.712;7.124;2022-12-17T01:53:40;-1.50;99.90
46706;DHT22;33519;50.712;7.124;2022-12-17T01:56:27;-1.50;99.90
46706;DHT22;33519;50.712;7.124;2022-12-17T01:59:13;-1.50;99.90
46706;DHT22;33519;50.712;7.124;2022-12-17T02:01:59;-1.40;99.90
46706;DHT22;33519;50.712;7.124;2022-12-17T02:07:36;-1.40;99.90
46706;DHT22;33519;50.712;7.124;2022-12-17T02:10:32;-1.40;99.90
46706;DHT22;33519;50.712;7.124;2022-12-17T02:13:34;-1.30;99.90
46706;DHT22;33519;50.712;7.124;2022-12-17T02:16:25;-1.40;99.90
46706;DHT22;33519;50.712;7.124;2022-12-17T02:19:27;-1.50;99.90
46706;DHT22;33519;50.712;7.124;2022-12-17T02:22:37;-1.50;99.90
46706;DHT22;33519;50.712;7.124;2022-12-17T02:25:42;-1.40;99.90
46706;DHT22;33519;50.712;7.124;2022-12-17T02:28:33;-1.40;99.90
46706;DHT22;33519;50.712;7.124;2022-12-17T02:31:19;-1.40;99.90
46706;DHT22;33519;50.712;7.124;2022-12-17T02:34:06;-1.40;99.90
46706;DHT22;33519;50.712;7.124;2022-12-17T02:37:02;-1.40;99.90
46706;DHT22;33519;50.712;7.124;2022-12-17T02:39:48;-1.50;99.90
46706;DHT22;33519;50.712;7.124;2022-12-17T02:42:33;-1.50;99.90
46706;DHT22;33519;50.712;7.124;2022-12-17T02:45:18;-1.50;99.90
46706;DHT22;33519;50.712;7.124;2022-12-17T02:48:05;-1.50;99.90
46706;DHT22;33519;50.712;7.124;2022-12-17T02:50:51;-1.50;99.90
46706;DHT22;33519;50.712;7.124;2022-12-17T02:53:44;-1.50;99.90
46706;DHT22;33519;50.712;7.124;2022-12-17T02:56:29;-1.50;99.90
46706;DHT22;33519;50.712;7.124;2022-12-17T02:59:15;-1.50;99.90
46706;DHT22;33519;50.712;7.124;2022-12-17T03:02:00;-1.60;99.90
46706;DHT22;33519;50.712;7.124;2022-12-17T03:04:45;-1.60;99.90
46706;DHT22;33519;50.712;7.124;2022-12-17T03:07:44;-1.60;99.90
46706;DHT22;33519;50.712;7.124;2022-12-17T03:10:29;-1.70;99.90
46706;DHT22;33519;50.712;7.124;2022-12-17T03:13:26;-1.60;99.90
46706;DHT22;33519;50.712;7.124;2022-12-17T03:16:14;-1.60;99.90
46706;DHT22;33519;50.712;7.124;2022-12-17T03:19:03;-1.60;99.90
46706;DHT22;33519;50.712;7.124;2022-12-17T03:21:49;-1.60;99.90
46706;DHT22;33519;50.712;7.124;2022-12-17T03:24:34;-1.60;99.90
46706;DHT22;33519;50.712;7.124;2022-12-17T03:27:19;-1.60;99.90
46706;DHT22;33519;50.712;7.124;2022-12-17T03:30:10;-1.60;99.90
46706;DHT22;33519;50.712;7.124;2022-12-17T03:33:01;-1.60;99.90
46706;DHT22;33519;50.712;7.124;2022-12-17T03:35:46;-1.60;99.90
46706;DHT22;33519;50.712;7.124;2022-12-17T03:38:31;-1.70;99.90
46706;DHT22;33519;50.712;7.124;2022-12-17T03:41:17;-1.70;99.90
46706;DHT22;33519;50.712;7.124;2022-12-17T03:44:02;-1.80;99.90
46706;DHT22;33519;50.712;7.124;2022-12-17T03:46:47;-1.70;99.90
46706;DHT22;33519;50.712;7.124;2022-12-17T03:49:33;-1.80;99.90
46706;DHT22;33519;50.712;7.124;2022-12-17T03:52:18;-1.90;99.90
46706;DHT22;33519;50.712;7.124;2022-12-17T03:55:04;-1.90;99.90
46706;DHT22;33519;50.712;7.124;2022-12-17T03:57:49;-2.00;99.90
46706;DHT22;33519;50.712;7.124;2022-12-17T04:00:35;-2.00;99.90
46706;DHT22;33519;50.712;7.124;2022-12-17T04:03:20;-2.10;99.90
46706;DHT22;33519;50.712;7.124;2022-12-17T04:06:06;-2.10;99.90
46706;DHT22;33519;50.712;7.124;2022-12-17T04:08:51;-2.20;99.90
46706;DHT22;33519;50.712;7.124;2022-12-17T04:11:36;-2.20;99.90
46706;DHT22;33519;50.712;7.124;2022-12-17T04:14:22;-2.20;99.90
46706;DHT22;33519;50.712;7.124;2022-12-17T04:17:07;-2.20;99.90
46706;DHT22;33519;50.712;7.124;2022-12-17T04:19:53;-2.20;99.90
46706;DHT22;33519;50.712;7.124;2022-12-17T04:22:38;-2.20;99.90
46706;DHT22;33519;50.712;7.124;2022-12-17T04:25:23;-2.30;99.90
46706;DHT22;33519;50.712;7.124;2022-12-17T04:28:08;-2.30;99.90
46706;DHT22;33519;50.712;7.124;2022-12-17T04:30:54;-2.30;99.90
46706;DHT22;33519;50.712;7.124;2022-12-17T04:33:39;-2.40;99.90
46706;DHT22;33519;50.712;7.124;2022-12-17T04:36:24;-2.40;99.90
46706;DHT22;33519;50.712;7.124;2022-12-17T04:39:10;-2.40;99.90
46706;DHT22;33519;50.712;7.124;2022-12-17T04:41:55;-2.40;99.90
46706;DHT22;33519;50.712;7.124;2022-12-17T04:44:41;-2.50;99.90
46706;DHT22;33519;50.712;7.124;2022-12-17T04:47:26;-2.50;99.90
46706;DHT22;33519;50.712;7.124;2022-12-17T04:50:22;-2.50;99.90
46706;DHT22;33519;50.712;7.124;2022-12-17T04:53:08;-2.50;99.90
46706;DHT22;33519;50.712;7.124;2022-12-17T04:55:54;-2.50;99.90
46706;DHT22;33519;50.712;7.124;2022-12-17T04:58:39;-2.50;99.90
46706;DHT22;33519;50.712;7.124;2022-12-17T05:01:25;-2.60;99.90
46706;DHT22;33519;50.712;7.124;2022-12-17T05:04:10;-2.70;99.90
46706;DHT22;33519;50.712;7.124;2022-12-17T05:06:55;-2.80;99.90
46706;DHT22;33519;50.712;7.124;2022-12-17T05:09:40;-2.80;99.90
46706;DHT22;33519;50.712;7.124;2022-12-17T05:12:26;-2.90;99.90
46706;DHT22;33519;50.712;7.124;2022-12-17T05:15:11;-2.90;99.90
46706;DHT22;33519;50.712;7.124;2022-12-17T05:18:06;-2.90;99.90
46706;DHT22;33519;50.712;7.124;2022-12-17T05:20:53;-2.80;99.90
46706;DHT22;33519;50.712;7.124;2022-12-17T05:23:39;-2.90;99.90
46706;DHT22;33519;50.712;7.124;2022-12-17T05:26:27;-3.00;99.90
46706;DHT22;33519;50.712;7.124;2022-12-17T05:29:13;-3.00;99.90
46706;DHT22;33519;50.712;7.124;2022-12-17T05:31:58;-3.10;99.90
46706;DHT22;33519;50.712;7.124;2022-12-17T05:34:44;-3.20;99.90
46706;DHT22;33519;50.712;7.124;2022-12-17T05:37:30;-3.20;99.90
46706;DHT22;33519;50.712;7.124;2022-12-17T05:40:15;-3.30;99.90
46706;DHT22;33519;50.712;7.124;2022-12-17T05:43:03;-3.40;99.90
46706;DHT22;33519;50.712;7.124;2022-12-17T05:45:52;-3.40;99.90
46706;DHT22;33519;50.712;7.124;2022-12-17T05:48:37;-3.50;99.90
46706;DHT22;33519;50.712;7.124;2022-12-17T05:51:23;-3.50;99.90
46706;DHT22;33519;50.712;7.124;2022-12-17T05:54:08;-3.50;99.90
46706;DHT22;33519;50.712;7.124;2022-12-17T05:56:54;-3.50;99.90
46706;DHT22;33519;50.712;7.124;2022-12-17T05:59:39;-3.50;99.90
46706;DHT22;33519;50.712;7.124;2022-12-17T06:02:25;-3.40;99.90
46706;DHT22;33519;50.712;7.124;2022-12-17T06:05:11;-3.30;99.90
46706;DHT22;33519;50.712;7.124;2022-12-17T06:07:51;-3.30;99.90
46706;DHT22;33519;50.712;7.124;2022-12-17T06:10:36;-3.30;99.90
46706;DHT22;33519;50.712;7.124;2022-12-17T06:13:22;-3.30;99.90
46706;DHT22;33519;50.712;7.124;2022-12-17T06:16:07;-3.20;99.90
46706;DHT22;33519;50.712;7.124;2022-12-17T06:18:53;-3.20;99.90
46706;DHT22;33519;50.712;7.124;2022-12-17T06:21:39;-3.30;99.90
46706;DHT22;33519;50.712;7.124;2022-12-17T06:24:24;-3.30;99.90
46706;DHT22;33519;50.712;7.124;2022-12-17T06:27:12;-3.30;99.90
46706;DHT22;33519;50.712;7.124;2022-12-17T06:29:57;-3.50;99.90
46706;DHT22;33519;50.712;7.124;2022-12-17T06:32:45;-3.50;99.90
46706;DHT22;33519;50.712;7.124;2022-12-17T06:35:32;-3.50;99.90
46706;DHT22;33519;50.712;7.124;2022-12-17T06:38:17;-3.50;99.90
46706;DHT22;33519;50.712;7.124;2022-12-17T06:41:03;-3.60;99.90
46706;DHT22;33519;50.712;7.124;2022-12-17T06:43:48;-3.60;99.90
46706;DHT22;33519;50.712;7.124;2022-12-17T06:46:33;-3.70;99.90
46706;DHT22;33519;50.712;7.124;2022-12-17T06:49:19;-3.80;99.90
46706;DHT22;33519;50.712;7.124;2022-12-17T06:52:04;-3.90;99.90
46706;DHT22;33519;50.712;7.124;2022-12-17T06:54:50;-3.90;99.90
46706;DHT22;33519;50.712;7.124;2022-12-17T06:57:35;-4.00;99.90
46706;DHT22;33519;50.712;7.124;2022-12-17T07:00:22;-4.00;99.90
46706;DHT22;33519;50.712;7.124;2022-12-17T07:03:10;-4.00;99.90
46706;DHT22;33519;50.712;7.124;2022-12-17T07:05:59;-4.00;99.90
46706;DHT22;33519;50.712;7.124;2022-12-17T07:08:45;-4.00;99.90
46706;DHT22;33519;50.712;7.124;2022-12-17T07:11:32;-4.00;99.90
46706;DHT22;33519;50.712;7.124;2022-12-17T07:14:17;-3.90;99.90
46706;DHT22;33519;50.712;7.124;2022-12-17T07:17:03;-3.90;99.90
46706;DHT22;33519;50.712;7.124;2022-12-17T07:19:48;-4.00;99.90
46706;DHT22;33519;50.712;7.124;2022-12-17T07:22:34;-4.00;99.90
46706;DHT22;33519;50.712;7.124;2022-12-17T07:25:19;-4.10;99.90
46706;DHT22;33519;50.712;7.124;2022-12-17T07:28:12;-4.10;99.90
46706;DHT22;33519;50.712;7.124;2022-12-17T07:30:58;-4.00;99.90
46706;DHT22;33519;50.712;7.124;2022-12-17T07:33:43;-3.90;99.90
46706;DHT22;33519;50.712;7.124;2022-12-17T07:36:28;-3.90;99.90
46706;DHT22;33519;50.712;7.124;2022-12-17T07:39:13;-4.00;99.90
46706;DHT22;33519;50.712;7.124;2022-12-17T07:41:59;-4.10;99.90
46706;DHT22;33519;50.712;7.124;2022-12-17T07:44:44;-4.20;99.90
46706;DHT22;33519;50.712;7.124;2022-12-17T07:47:29;-4.30;99.90
46706;DHT22;33519;50.712;7.124;2022-12-17T07:50:15;-4.30;99.90
46706;DHT22;33519;50.712;7.124;2022-12-17T07:53:01;-4.30;99.90
46706;DHT22;33519;50.712;7.124;2022-12-17T07:55:47;-4.30;99.90
46706;DHT22;33519;50.712;7.124;2022-12-17T07:58:32;-4.40;99.90
46706;DHT22;33519;50.712;7.124;2022-12-17T08:01:17;-4.30;99.90
46706;DHT22;33519;50.712;7.124;2022-12-17T08:04:03;-4.30;99.90
46706;DHT22;33519;50.712;7.124;2022-12-17T08:06:50;-4.40;99.90
46706;DHT22;33519;50.712;7.124;2022-12-17T08:09:39;-4.40;99.90
46706;DHT22;33519;50.712;7.124;2022-12-17T08:12:24;-4.30;99.90
46706;DHT22;33519;50.712;7.124;2022-12-17T08:15:09;-4.30;99.90
46706;DHT22;33519;50.712;7.124;2022-12-17T08:18:00;-4.30;99.90
46706;DHT22;33519;50.712;7.124;2022-12-17T08:21:02;-4.40;99.90
46706;DHT22;33519;50.712;7.124;2022-12-17T08:23:47;-4.30;99.90
46706;DHT22;33519;50.712;7.124;2022-12-17T08:26:32;-4.20;99.90
46706;DHT22;33519;50.712;7.124;2022-12-17T08:29:17;-4.20;99.90
46706;DHT22;33519;50.712;7.124;2022-12-17T08:32:03;-4.20;99.90
46706;DHT22;33519;50.712;7.124;2022-12-17T08:34:48;-4.20;99.90
46706;DHT22;33519;50.712;7.124;2022-12-17T08:37:33;-4.20;99.90
46706;DHT22;33519;50.712;7.124;2022-12-17T08:40:19;-4.20;99.90
46706;DHT22;33519;50.712;7.124;2022-12-17T08:43:04;-4.10;99.90
46706;DHT22;33519;50.712;7.124;2022-12-17T08:45:50;-4.20;99.90
46706;DHT22;33519;50.712;7.124;2022-12-17T08:48:38;-4.00;99.90
46706;DHT22;33519;50.712;7.124;2022-12-17T08:51:26;-4.00;99.90
46706;DHT22;33519;50.712;7.124;2022-12-17T08:54:11;-3.90;99.90
46706;DHT22;33519;50.712;7.124;2022-12-17T08:56:57;-4.00;99.90
46706;DHT22;33519;50.712;7.124;2022-12-17T08:59:57;-4.00;99.90
46706;DHT22;33519;50.712;7.124;2022-12-17T09:02:42;-4.00;99.90
46706;DHT22;33519;50.712;7.124;2022-12-17T09:05:32;-4.00;99.90
46706;DHT22;33519;50.712;7.124;2022-12-17T09:08:09;-4.00;99.90
46706;DHT22;33519;50.712;7.124;2022-12-17T09:10:54;-4.00;99.90
46706;DHT22;33519;50.712;7.124;2022-12-17T09:13:43;-4.20;99.90
46706;DHT22;33519;50.712;7.124;2022-12-17T09:16:28;-4.10;99.90
46706;DHT22;33519;50.712;7.124;2022-12-17T09:19:13;-3.90;99.90
46706;DHT22;33519;50.712;7.124;2022-12-17T09:21:59;-3.90;99.90
46706;DHT22;33519;50.712;7.124;2022-12-17T09:24:44;-3.80;99.90
46706;DHT22;33519;50.712;7.124;2022-12-17T09:27:30;-3.70;99.90
46706;DHT22;33519;50.712;7.124;2022-12-17T09:30:15;-3.50;99.90
46706;DHT22;33519;50.712;7.124;2022-12-17T09:33:00;-3.50;99.90
46706;DHT22;33519;50.712;7.124;2022-12-17T09:35:45;-3.50;99.90
46706;DHT22;33519;50.712;7.124;2022-12-17T09:38:24;-3.60;99.90
46706;DHT22;33519;50.712;7.124;2022-12-17T09:41:17;-3.60;99.90
46706;DHT22;33519;50.712;7.124;2022-12-17T09:47:19;-3.60;99.90
46706;DHT22;33519;50.712;7.124;2022-12-17T09:50:13;-3.60;99.90
46706;DHT22;33519;50.712;7.124;2022-12-17T09:53:01;-3.70;99.90
46706;DHT22;33519;50.712;7.124;2022-12-17T09:55:49;-3.60;99.90
46706;DHT22;33519;50.712;7.124;2022-12-17T09:58:38;-3.50;99.90
46706;DHT22;33519;50.712;7.124;2022-12-17T10:01:31;-3.50;99.90
46706;DHT22;33519;50.712;7.124;2022-12-17T10:04:34;-3.50;99.90
46706;DHT22;33519;50.712;7.124;2022-12-17T10:07:23;-3.50;99.90
46706;DHT22;33519;50.712;7.124;2022-12-17T10:10:31;-3.40;99.90
46706;DHT22;33519;50.712;7.124;2022-12-17T10:13:19;-3.50;99.90
46706;DHT22;33519;50.712;7.124;2022-12-17T10:19:14;-3.70;99.90
46706;DHT22;33519;50.712;7.124;2022-12-17T10:22:11;-3.60;99.90
46706;DHT22;33519;50.712;7.124;2022-12-17T10:24:56;-3.50;99.90
46706;DHT22;33519;50.712;7.124;2022-12-17T10:27:42;-3.00;99.90
46706;DHT22;33519;50.712;7.124;2022-12-17T10:30:27;-2.80;99.90
46706;DHT22;33519;50.712;7.124;2022-12-17T10:33:18;-3.00;99.90
46706;DHT22;33519;50.712;7.124;2022-12-17T10:38:33;-3.10;99.90
46706;DHT22;33519;50.712;7.124;2022-12-17T10:41:24;-3.20;99.90
46706;DHT22;33519;50.712;7.124;2022-12-17T10:44:26;-3.10;99.90
46706;DHT22;33519;50.712;7.124;2022-12-17T10:47:17;-3.30;99.90
46706;DHT22;33519;50.712;7.124;2022-12-17T10:50:08;-3.20;99.90
46706;DHT22;33519;50.712;7.124;2022-12-17T10:52:53;-3.20;99.90
46706;DHT22;33519;50.712;7.124;2022-12-17T10:55:51;-2.80;99.90
46706;DHT22;33519;50.712;7.124;2022-12-17T10:58:43;-1.70;99.90
46706;DHT22;33519;50.712;7.124;2022-12-17T11:01:29;-0.70;99.90
46706;DHT22;33519;50.712;7.124;2022-12-17T11:04:23;0.00;99.90
46706;DHT22;33519;50.712;7.124;2022-12-17T11:07:35;0.50;99.90
46706;DHT22;33519;50.712;7.124;2022-12-17T11:10:29;0.70;99.90
46706;DHT22;33519;50.712;7.124;2022-12-17T11:13:31;0.70;99.90
46706;DHT22;33519;50.712;7.124;2022-12-17T11:16:25;0.50;99.90
46706;DHT22;33519;50.712;7.124;2022-12-17T11:22:02;0.10;99.90
46706;DHT22;33519;50.712;7.124;2022-12-17T11:25:05;0.10;99.90
46706;DHT22;33519;50.712;7.124;2022-12-17T11:28:04;0.20;99.90
46706;DHT22;33519;50.712;7.124;2022-12-17T11:31:08;0.00;99.90
46706;DHT22;33519;50.712;7.124;2022-12-17T11:34:15;0.20;99.90
46706;DHT22;33519;50.712;7.124;2022-12-17T11:40:18;0.00;99.90
46706;DHT22;33519;50.712;7.124;2022-12-17T11:43:19;0.40;99.90
46706;DHT22;33519;50.712;7.124;2022-12-17T11:49:20;0.50;99.90
46706;DHT22;33519;50.712;7.124;2022-12-17T11:52:14;0.30;99.90
46706;DHT22;33519;50.712;7.124;2022-12-17T11:55:20;0.10;99.90
46706;DHT22;33519;50.712;7.124;2022-12-17T12:01:40;0.60;99.90
46706;DHT22;33519;50.712;7.124;2022-12-17T12:07:45;1.00;99.90
46706;DHT22;33519;50.712;7.124;2022-12-17T12:14:00;1.30;99.90
46706;DHT22;33519;50.712;7.124;2022-12-17T12:17:05;1.40;99.90
46706;DHT22;33519;50.712;7.124;2022-12-17T12:23:10;1.60;99.90
46706;DHT22;33519;50.712;7.124;2022-12-17T12:26:14;1.60;99.90
46706;DHT22;33519;50.712;7.124;2022-12-17T12:35:13;1.70;99.90
46706;DHT22;33519;50.712;7.124;2022-12-17T12:38:01;1.80;99.90
46706;DHT22;33519;50.712;7.124;2022-12-17T12:41:01;1.80;99.90
46706;DHT22;33519;50.712;7.124;2022-12-17T12:43:54;1.90;99.90
46706;DHT22;33519;50.712;7.124;2022-12-17T12:46:45;2.10;99.90
46706;DHT22;33519;50.712;7.124;2022-12-17T12:52:47;0.90;99.90
46706;DHT22;33519;50.712;7.124;2022-12-17T12:55:40;0.80;99.90
46706;DHT22;33519;50.712;7.124;2022-12-17T12:58:29;0.70;99.90
46706;DHT22;33519;50.712;7.124;2022-12-17T13:01:15;0.80;99.90
46706;DHT22;33519;50.712;7.124;2022-12-17T13:04:20;0.70;99.90
46706;DHT22;33519;50.712;7.124;2022-12-17T13:07:23;1.20;99.90
46706;DHT22;33519;50.712;7.124;2022-12-17T13:09:53;1.20;99.90
46706;DHT22;33519;50.712;7.124;2022-12-17T13:12:44;1.20;99.90
46706;DHT22;33519;50.712;7.124;2022-12-17T13:15:22;1.90;99.90
46706;DHT22;33519;50.712;7.124;2022-12-17T13:20:38;1.80;99.90
46706;DHT22;33519;50.712;7.124;2022-12-17T13:23:16;1.60;99.90
46706;DHT22;33519;50.712;7.124;2022-12-17T13:25:45;1.60;99.90
46706;DHT22;33519;50.712;7.124;2022-12-17T13:28:28;1.50;99.90
46706;DHT22;33519;50.712;7.124;2022-12-17T13:31:01;1.40;99.90
46706;DHT22;33519;50.712;7.124;2022-12-17T13:33:52;1.40;99.90
46706;DHT22;33519;50.712;7.124;2022-12-17T13:36:25;1.10;99.90
46706;DHT22;33519;50.712;7.124;2022-12-17T13:41:36;0.70;99.90
46706;DHT22;33519;50.712;7.124;2022-12-17T13:44:17;0.60;99.90
46706;DHT22;33519;50.712;7.124;2022-12-17T13:46:48;0.50;99.90
46706;DHT22;33519;50.712;7.124;2022-12-17T13:49:21;0.40;99.90
46706;DHT22;33519;50.712;7.124;2022-12-17T13:51:58;0.70;99.90
46706;DHT22;33519;50.712;7.124;2022-12-17T13:54:25;0.90;99.90
46706;DHT22;33519;50.712;7.124;2022-12-17T13:56:52;1.00;99.90
46706;DHT22;33519;50.712;7.124;2022-12-17T13:59:22;1.10;99.90
46706;DHT22;33519;50.712;7.124;2022-12-17T14:01:52;0.90;99.90
46706;DHT22;33519;50.712;7.124;2022-12-17T14:04:25;1.20;99.90
46706;DHT22;33519;50.712;7.124;2022-12-17T14:06:55;1.00;99.90
46706;DHT22;33519;50.712;7.124;2022-12-17T14:09:36;1.10;99.90
46706;DHT22;33519;50.712;7.124;2022-12-17T14:12:04;0.80;99.90
46706;DHT22;33519;50.712;7.124;2022-12-17T14:14:52;0.50;99.90
46706;DHT22;33519;50.712;7.124;2022-12-17T14:17:26;0.60;99.90
46706;DHT22;33519;50.712;7.124;2022-12-17T14:20:10;0.60;99.90
46706;DHT22;33519;50.712;7.124;2022-12-17T14:22:40;0.60;99.90
46706;DHT22;33519;50.712;7.124;2022-12-17T14:25:25;0.80;99.90
46706;DHT22;33519;50.712;7.124;2022-12-17T14:27:58;0.60;99.90
46706;DHT22;33519;50.712;7.124;2022-12-17T14:30:39;0.20;99.90
46706;DHT22;33519;50.712;7.124;2022-12-17T14:33:35;0.30;99.90
46706;DHT22;33519;50.712;7.124;2022-12-17T14:36:05;0.30;99.90
46706;DHT22;33519;50.712;7.124;2022-12-17T14:38:33;0.00;99.90
46706;DHT22;33519;50.712;7.124;2022-12-17T14:41:14;0.20;99.90
46706;DHT22;33519;50.712;7.124;2022-12-17T14:44:01;0.20;99.90
46706;DHT22;33519;50.712;7.124;2022-12-17T14:46:29;0.20;99.90
46706;DHT22;33519;50.712;7.124;2022-12-17T14:48:58;0.30;99.90
46706;DHT22;33519;50.712;7.124;2022-12-17T14:56:41;-0.60;99.90
46706;DHT22;33519;50.712;7.124;2022-12-17T14:59:34;-1.10;99.90
46706;DHT22;33519;50.712;7.124;2022-12-17T15:02:26;-1.60;99.90
46706;DHT22;33519;50.712;7.124;2022-12-17T15:04:57;-1.80;99.90
46706;DHT22;33519;50.712;7.124;2022-12-17T15:07:28;-2.00;99.90
46706;DHT22;33519;50.712;7.124;2022-12-17T15:09:56;-2.10;99.90
46706;DHT22;33519;50.712;7.124;2022-12-17T15:12:24;-2.20;99.90
46706;DHT22;33519;50.712;7.124;2022-12-17T15:14:54;-2.20;99.90
46706;DHT22;33519;50.712;7.124;2022-12-17T15:17:20;-2.20;99.90
46706;DHT22;33519;50.712;7.124;2022-12-17T15:19:47;-2.30;99.90
46706;DHT22;33519;50.712;7.124;2022-12-17T15:22:21;-2.30;99.90
46706;DHT22;33519;50.712;7.124;2022-12-17T15:24:48;-2.40;99.90
46706;DHT22;33519;50.712;7.124;2022-12-17T15:27:15;-2.40;99.90
46706;DHT22;33519;50.712;7.124;2022-12-17T15:29:42;-2.50;99.90
46706;DHT22;33519;50.712;7.124;2022-12-17T15:32:19;-2.50;99.90
46706;DHT22;33519;50.712;7.124;2022-12-17T15:34:47;-2.50;99.90
46706;DHT22;33519;50.712;7.124;2022-12-17T15:37:14;-2.60;99.90
46706;DHT22;33519;50.712;7.124;2022-12-17T15:39:48;-2.60;99.90
46706;DHT22;33519;50.712;7.124;2022-12-17T15:42:14;-2.70;99.90
46706;DHT22;33519;50.712;7.124;2022-12-17T15:45:00;-2.70;99.90
46706;DHT22;33519;50.712;7.124;2022-12-17T15:47:29;-2.80;99.90
46706;DHT22;33519;50.712;7.124;2022-12-17T15:49:55;-2.90;99.90
46706;DHT22;33519;50.712;7.124;2022-12-17T15:52:22;-2.90;99.90
46706;DHT22;33519;50.712;7.124;2022-12-17T15:54:49;-2.90;99.90
46706;DHT22;33519;50.712;7.124;2022-12-17T15:57:16;-2.90;99.90
46706;DHT22;33519;50.712;7.124;2022-12-17T15:59:44;-2.90;99.90
46706;DHT22;33519;50.712;7.124;2022-12-17T16:02:11;-2.90;99.90
46706;DHT22;33519;50.712;7.124;2022-12-17T16:04:38;-3.00;99.90
46706;DHT22;33519;50.712;7.124;2022-12-17T16:07:06;-3.00;99.90
46706;DHT22;33519;50.712;7.124;2022-12-17T16:09:32;-3.10;99.90
46706;DHT22;33519;50.712;7.124;2022-12-17T16:11:59;-3.10;99.90
46706;DHT22;33519;50.712;7.124;2022-12-17T16:14:26;-3.10;99.90
46706;DHT22;33519;50.712;7.124;2022-12-17T16:16:52;-3.10;99.90
46706;DHT22;33519;50.712;7.124;2022-12-17T16:19:19;-3.10;99.90
46706;DHT22;33519;50.712;7.124;2022-12-17T16:21:46;-3.10;99.90
46706;DHT22;33519;50.712;7.124;2022-12-17T16:24:12;-3.10;99.90
46706;DHT22;33519;50.712;7.124;2022-12-17T16:26:39;-3.20;99.90
46706;DHT22;33519;50.712;7.124;2022-12-17T16:29:06;-3.20;99.90
46706;DHT22;33519;50.712;7.124;2022-12-17T16:31:33;-3.30;99.90
46706;DHT22;33519;50.712;7.124;2022-12-17T16:34:00;-3.20;99.90
46706;DHT22;33519;50.712;7.124;2022-12-17T16:36:27;-3.30;99.90
46706;DHT22;33519;50.712;7.124;2022-12-17T16:38:53;-3.30;99.90
46706;DHT22;33519;50.712;7.124;2022-12-17T16:41:21;-3.30;99.90
46706;DHT22;33519;50.712;7.124;2022-12-17T16:43:48;-3.30;99.90
46706;DHT22;33519;50.712;7.124;2022-12-17T16:46:28;-3.30;99.90
46706;DHT22;33519;50.712;7.124;2022-12-17T16:48:57;-3.30;99.90
46706;DHT22;33519;50.712;7.124;2022-12-17T16:51:26;-3.30;99.90
46706;DHT22;33519;50.712;7.124;2022-12-17T16:53:56;-3.40;99.90
46706;DHT22;33519;50.712;7.124;2022-12-17T16:56:25;-3.40;99.90
46706;DHT22;33519;50.712;7.124;2022-12-17T16:58:53;-3.40;99.90
46706;DHT22;33519;50.712;7.124;2022-12-17T17:01:22;-3.40;99.90
46706;DHT22;33519;50.712;7.124;2022-12-17T17:03:50;-3.40;99.90
46706;DHT22;33519;50.712;7.124;2022-12-17T17:06:18;-3.40;99.90
46706;DHT22;33519;50.712;7.124;2022-12-17T17:08:44;-3.40;99.90
46706;DHT22;33519;50.712;7.124;2022-12-17T17:11:16;-3.30;99.90
46706;DHT22;33519;50.712;7.124;2022-12-17T17:13:44;-3.30;99.90
46706;DHT22;33519;50.712;7.124;2022-12-17T17:16:11;-3.30;99.90
46706;DHT22;33519;50.712;7.124;2022-12-17T17:18:40;-3.40;99.90
46706;DHT22;33519;50.712;7.124;2022-12-17T17:23:48;-3.50;99.90
46706;DHT22;33519;50.712;7.124;2022-12-17T17:26:14;-3.50;99.90
46706;DHT22;33519;50.712;7.124;2022-12-17T17:28:43;-3.50;99.90
46706;DHT22;33519;50.712;7.124;2022-12-17T17:31:11;-3.50;99.90
46706;DHT22;33519;50.712;7.124;2022-12-17T17:33:40;-3.50;99.90
46706;DHT22;33519;50.712;7.124;2022-12-17T17:36:17;-3.50;99.90
46706;DHT22;33519;50.712;7.124;2022-12-17T17:38:44;-3.50;99.90
46706;DHT22;33519;50.712;7.124;2022-12-17T17:41:14;-3.50;99.90
46706;DHT22;33519;50.712;7.124;2022-12-17T17:43:41;-3.60;99.90
46706;DHT22;33519;50.712;7.124;2022-12-17T17:46:13;-3.60;99.90
46706;DHT22;33519;50.712;7.124;2022-12-17T17:48:41;-3.60;99.90
46706;DHT22;33519;50.712;7.124;2022-12-17T17:51:14;-3.60;99.90
46706;DHT22;33519;50.712;7.124;2022-12-17T17:53:42;-3.60;99.90
46706;DHT22;33519;50.712;7.124;2022-12-17T17:56:14;-3.60;99.90
46706;DHT22;33519;50.712;7.124;2022-12-17T17:58:46;-3.60;99.90
46706;DHT22;33519;50.712;7.124;2022-12-17T18:01:16;-3.60;99.90
46706;DHT22;33519;50.712;7.124;2022-12-17T18:03:44;-3.70;99.90
46706;DHT22;33519;50.712;7.124;2022-12-17T18:06:12;-3.70;99.90
46706;DHT22;33519;50.712;7.124;2022-12-17T18:08:40;-3.70;99.90
46706;DHT22;33519;50.712;7.124;2022-12-17T18:11:09;-3.70;99.90